Time;durP1;ratioP1;P1;durP2;ratioP2;P2;SDS_P1;SDS_P2;PMS_P1;PMS_P2;Temp;Humidity;BMP_temperature;BMP_pressure;BME280_temperature;BME280_humidity;BME280_pressure;Samples;Min_cycle;Max_cycle;Signal;HPM_P1;HPM_P2
2022/10/25 00:00:30;;;;;;;0.50;0.50;;;;;;;10.54;98.07;97077.13;29394;218;64009;-57
2022/10/25 00:01:01;;;;;;;0.50;0.50;;;;;;;10.54;98.05;97071.72;29395;226;63014;-57
2022/10/25 00:01:42;;;;;;;0.50;0.50;;;;;;;10.54;97.98;97076.34;29395;202;63018;-57
2022/10/25 00:02:21;;;;;;;0.50;0.50;;;;;;;10.52;97.97;97073.91;29417;248;63009;-57
2022/10/25 00:02:52;;;;;;;0.50;0.50;;;;;;;10.54;98.29;97077.13;29395;242;63007;-58
2022/10/25 00:03:24;;;;;;;0.50;0.50;;;;;;;10.54;97.97;97077.13;29395;324;63009;-57
2022/10/25 00:03:55;;;;;;;0.50;0.50;;;;;;;10.54;98.03;97074.44;29395;220;63007;-56
2022/10/25 00:04:30;;;;;;;0.40;0.40;;;;;;;10.56;97.71;97079.56;29395;217;63009;-57
2022/10/25 00:05:03;;;;;;;0.50;0.50;;;;;;;10.56;97.94;97074.94;29395;226;63005;-57
2022/10/25 00:05:36;;;;;;;0.50;0.50;;;;;;;10.56;98.04;97069.53;29394;278;64013;-58
2022/10/25 00:06:09;;;;;;;0.50;0.50;;;;;;;10.57;97.82;97065.72;29395;258;63004;-58
2022/10/25 00:06:41;;;;;;;0.50;0.50;;;;;;;10.57;97.61;97067.63;29395;214;63009;-57
2022/10/25 00:07:13;;;;;;;0.50;0.50;;;;;;;10.56;97.62;97066.81;29395;354;63004;-57
2022/10/25 00:07:44;;;;;;;0.50;0.50;;;;;;;10.57;97.49;97075.75;29395;236;63008;-57
2022/10/25 00:08:16;;;;;;;0.50;0.50;;;;;;;10.57;97.61;97071.16;29395;234;63004;-57
2022/10/25 00:08:48;;;;;;;0.50;0.50;;;;;;;10.57;97.39;97073.84;29395;196;63008;-57
2022/10/25 00:09:19;;;;;;;0.50;0.50;;;;;;;10.56;97.67;97069.53;29395;197;63004;-56
2022/10/25 00:09:50;;;;;;;0.50;0.50;;;;;;;10.56;97.76;97072.25;29395;227;63009;-57
2022/10/25 00:10:22;;;;;;;0.50;0.50;;;;;;;10.55;97.76;97072.53;29395;211;63005;-57
2022/10/25 00:10:53;;;;;;;0.50;0.50;;;;;;;10.55;97.82;97073.34;29394;219;64013;-57
2022/10/25 00:11:29;;;;;;;0.50;0.50;;;;;;;10.55;97.76;97080.66;29395;223;63005;-57
2022/10/25 00:12:00;;;;;;;0.50;0.50;;;;;;;10.53;97.54;97069.28;29395;199;63009;-57
2022/10/25 00:12:31;;;;;;;0.50;0.50;;;;;;;10.53;97.70;97070.09;29394;197;64009;-56
2022/10/25 00:13:04;;;;;;;0.50;0.50;;;;;;;10.52;98.09;97071.19;29395;260;63009;-57
2022/10/25 00:13:35;;;;;;;0.50;0.50;;;;;;;10.51;98.12;97075.00;29395;249;63004;-57
2022/10/25 00:14:07;;;;;;;0.50;0.50;;;;;;;10.52;98.03;97078.53;29395;210;63009;-56
2022/10/25 00:14:38;;;;;;;0.50;0.50;;;;;;;10.50;98.27;97073.38;29394;226;64009;-59
2022/10/25 00:15:12;;;;;;;0.50;0.50;;;;;;;10.50;98.25;97073.38;29395;291;63009;-56
2022/10/25 00:15:44;;;;;;;0.50;0.50;;;;;;;10.50;98.43;97070.66;29395;384;63004;-57
2022/10/25 00:16:19;;;;;;;0.50;0.50;;;;;;;10.50;97.92;97067.97;29395;214;63009;-55
2022/10/25 00:16:50;;;;;;;0.50;0.50;;;;;;;10.49;98.09;97073.66;29395;395;63005;-57
2022/10/25 00:17:22;;;;;;;0.50;0.50;;;;;;;10.48;97.87;97070.16;29395;233;63021;-58
2022/10/25 00:17:53;;;;;;;0.50;0.50;;;;;;;10.46;97.58;97069.63;29394;337;64009;-57
2022/10/25 00:18:25;;;;;;;0.50;0.50;;;;;;;10.45;97.71;97067.19;29395;327;63009;-57
2022/10/25 00:18:57;;;;;;;0.50;0.50;;;;;;;10.45;98.03;97073.44;29395;264;63005;-57
2022/10/25 00:19:28;;;;;;;0.50;0.50;;;;;;;10.45;97.98;97072.63;29394;202;64013;-57
2022/10/25 00:19:59;;;;;;;0.50;0.50;;;;;;;10.45;98.53;97072.63;29395;220;63005;-57
2022/10/25 00:20:30;;;;;;;0.50;0.50;;;;;;;10.43;98.28;97070.19;29395;410;63009;-57
2022/10/25 00:21:04;;;;;;;0.50;0.50;;;;;;;10.43;98.58;97075.63;29395;199;63004;-57
2022/10/25 00:21:35;;;;;;;0.50;0.50;;;;;;;10.44;98.37;97073.72;29395;197;63009;-57
2022/10/25 00:22:06;;;;;;;0.50;0.50;;;;;;;10.47;97.88;97067.72;29395;241;63004;-55
2022/10/25 00:22:38;;;;;;;0.50;0.50;;;;;;;10.47;97.66;97071.25;29395;227;63009;-57
2022/10/25 00:23:09;;;;;;;0.45;0.45;;;;;;;10.47;97.64;97070.44;29395;247;63004;-57
2022/10/25 00:23:41;;;;;;;0.50;0.50;;;;;;;10.46;97.95;97072.34;29394;198;64014;-57
2022/10/25 00:24:13;;;;;;;0.50;0.50;;;;;;;10.44;98.00;97076.44;29395;197;63005;-57
2022/10/25 00:24:44;;;;;;;0.50;0.50;;;;;;;10.45;98.01;97073.44;29395;314;63009;-56
2022/10/25 00:25:16;;;;;;;0.50;0.50;;;;;;;10.45;97.91;97075.34;29395;266;63005;-57
2022/10/25 00:25:47;;;;;;;0.40;0.40;;;;;;;10.46;97.71;97076.97;29395;208;63017;-57
2022/10/25 00:26:20;;;;;;;0.50;0.50;;;;;;;10.45;97.78;97073.44;29395;259;63005;-57
2022/10/25 00:26:51;;;;;;;0.40;0.40;;;;;;;10.45;97.78;97073.44;29395;267;63024;-57
2022/10/25 00:27:22;;;;;;;0.50;0.50;;;;;;;10.44;97.87;97071.81;29395;394;63005;-60
2022/10/25 00:27:53;;;;;;;0.40;0.40;;;;;;;10.44;98.15;97071.81;29395;210;63018;-57
2022/10/25 00:28:25;;;;;;;0.40;0.40;;;;;;;10.45;97.98;97069.91;29395;319;63004;-57
2022/10/25 00:28:56;;;;;;;0.50;0.50;;;;;;;10.44;98.18;97074.53;29394;356;64013;-57
2022/10/25 00:29:27;;;;;;;0.50;0.50;;;;;;;10.43;98.08;97064.78;29395;229;63004;-57
2022/10/25 00:29:58;;;;;;;0.50;0.50;;;;;;;10.44;98.15;97071.81;29395;218;63009;-58
2022/10/25 00:30:29;;;;;;;0.50;0.50;;;;;;;10.43;97.94;97072.91;29395;242;63004;-57
2022/10/25 00:31:11;;;;;;;0.50;0.50;;;;;;;10.46;98.38;97072.34;29395;247;63008;-56
2022/10/25 00:31:41;;;;;;;;;;;;;;;10.45;98.08;97068.00;29996;982;6000;-57
2022/10/25 00:32:13;;;;;;;0.40;0.40;;;;;;;10.47;98.30;97060.38;29422;213;63011;-58
2022/10/25 00:32:44;;;;;;;0.50;0.50;;;;;;;10.47;97.74;97059.59;29395;224;63009;-57
2022/10/25 00:33:17;;;;;;;0.50;0.50;;;;;;;10.47;97.82;97060.38;29395;234;63005;-56
2022/10/25 00:33:48;;;;;;;0.50;0.50;;;;;;;10.47;97.93;97063.09;29394;202;64013;-57
2022/10/25 00:34:20;;;;;;;0.50;0.50;;;;;;;10.48;97.42;97066.63;29394;218;64000;-56
2022/10/25 00:34:51;;;;;;;0.50;0.50;;;;;;;10.49;97.52;97068.25;29395;242;63009;-58
2022/10/25 00:35:23;;;;;;;0.50;0.50;;;;;;;10.49;97.53;97063.62;29395;459;63004;-56
2022/10/25 00:35:54;;;;;;;0.50;0.50;;;;;;;10.48;97.51;97062.00;29395;346;63009;-57
2022/10/25 00:36:26;;;;;;;0.50;0.50;;;;;;;10.49;97.52;97066.34;29395;305;63004;-55
2022/10/25 00:37:01;;;;;;;0.50;0.50;;;;;;;10.49;96.92;97066.34;29395;204;63009;-57
2022/10/25 00:37:32;;;;;;;0.50;0.50;;;;;;;10.49;97.07;97066.34;29395;251;63004;-57
2022/10/25 00:38:03;;;;;;;0.50;0.50;;;;;;;10.50;96.69;97065.25;29395;245;63018;-56
2022/10/25 00:38:35;;;;;;;0.50;0.50;;;;;;;10.51;96.87;97066.87;29395;253;63004;-57
2022/10/25 00:39:06;;;;;;;0.50;0.50;;;;;;;10.51;96.64;97066.87;29395;198;63009;-57
2022/10/25 00:39:38;;;;;;;0.50;0.50;;;;;;;10.50;96.54;97065.25;29394;203;64009;-57
2022/10/25 00:40:10;;;;;;;0.50;0.50;;;;;;;10.50;96.63;97059.81;29395;207;63009;-57
2022/10/25 00:40:41;;;;;;;0.50;0.50;;;;;;;10.50;97.01;97059.81;29395;241;63005;-57
2022/10/25 00:41:17;;;;;;;0.50;0.50;;;;;;;10.51;96.66;97064.16;29395;202;63009;-57
2022/10/25 00:41:48;;;;;;;0.50;0.50;;;;;;;10.51;96.68;97069.56;29395;222;63005;-57
2022/10/25 00:42:23;;;;;;;0.50;0.50;;;;;;;10.50;96.47;97062.53;29395;244;63009;-56
2022/10/25 00:42:54;;;;;;;0.50;0.50;;;;;;;10.51;96.38;97061.44;29395;226;63009;-57
2022/10/25 00:43:46;;;;;;;0.50;0.50;;;;;;;10.53;95.94;97059.25;29395;233;63016;-57
2022/10/25 00:44:57;;;;;;;0.50;0.50;;;;;;;10.53;95.96;97064.66;29395;216;63012;-56
2022/10/25 00:45:28;;;;;;;0.50;0.50;;;;;;;10.59;95.47;97066.25;29394;251;64013;-57
2022/10/25 00:46:02;;;;;;;0.50;0.50;;;;;;;10.59;95.38;97058.09;29395;205;63004;-57
2022/10/25 00:46:34;;;;;;;0.47;0.47;;;;;;;10.58;95.02;97059.19;29395;237;63009;-58
2022/10/25 00:47:39;;;;;;;0.50;0.50;;;;;;;10.57;95.08;97065.72;29395;231;63005;-58
2022/10/25 00:48:11;;;;;;;0.50;0.50;;;;;;;10.55;95.24;97067.09;29395;214;63009;-57
2022/10/25 00:48:59;;;;;;;0.50;0.50;;;;;;;10.56;95.94;97069.53;29395;451;63005;-57
2022/10/25 00:49:33;;;;;;;0.50;0.50;;;;;;;10.59;95.55;97066.25;29395;381;63009;-57
2022/10/25 00:50:45;;;;;;;0.50;0.50;;;;;;;10.57;96.00;97073.84;29395;228;63005;-57
2022/10/25 00:51:17;;;;;;;0.50;0.50;;;;;;;10.56;96.11;97068.72;29416;212;64013;-58
2022/10/25 00:51:58;;;;;;;0.50;0.50;;;;;;;10.55;95.89;97057.06;29395;232;63004;-57
2022/10/25 00:52:31;;;;;;;;;;;;;;;10.55;95.83;97067.91;29996;983;6004;-57
2022/10/25 00:53:13;;;;;;;0.50;0.50;;;;;;;10.55;95.81;97070.62;29400;240;63017;-57
2022/10/25 00:53:48;;;;;;;0.50;0.50;;;;;;;10.56;95.95;97074.16;29395;209;63004;-57
2022/10/25 00:54:24;;;;;;;0.50;0.50;;;;;;;10.57;95.74;97070.34;29395;200;63026;-58
2022/10/25 00:54:57;;;;;;;0.50;0.50;;;;;;;10.56;95.71;97071.44;29395;230;63005;-57
2022/10/25 00:55:29;;;;;;;0.50;0.50;;;;;;;10.57;95.56;97067.63;29395;199;63009;-57
2022/10/25 00:56:18;;;;;;;0.50;0.50;;;;;;;10.57;95.49;97071.16;29395;253;63005;-57
2022/10/25 00:56:50;;;;;;;0.50;0.50;;;;;;;10.58;95.79;97072.75;29394;199;64013;-56
2022/10/25 00:57:38;;;;;;;0.50;0.50;;;;;;;10.59;96.53;97079.00;29395;249;63005;-57
2022/10/25 00:58:15;;;;;;;0.50;0.50;;;;;;;10.57;96.42;97071.16;29395;299;63009;-62
2022/10/25 00:58:50;;;;;;;0.50;0.50;;;;;;;10.56;96.07;97072.25;29395;240;63004;-57
2022/10/25 00:59:26;;;;;;;0.50;0.50;;;;;;;10.56;96.31;97074.16;29395;241;63009;-56
2022/10/25 00:59:58;;;;;;;0.50;0.50;;;;;;;10.62;95.85;97067.56;29395;305;63004;-56
2022/10/25 01:00:29;;;;;;;0.50;0.50;;;;;;;10.62;95.24;97073.81;29395;224;63009;-57
2022/10/25 01:01:05;;;;;;;0.50;0.50;;;;;;;10.62;95.26;97073.81;29395;224;63004;-57
2022/10/25 01:01:37;;;;;;;0.50;0.50;;;;;;;10.62;94.90;97068.38;29394;221;64009;-57
2022/10/25 01:02:09;;;;;;;0.50;0.50;;;;;;;10.62;95.09;97073.81;29394;251;64009;-61
2022/10/25 01:02:41;;;;;;;0.50;0.50;;;;;;;10.61;94.94;97068.66;29395;390;63009;-57
2022/10/25 01:03:15;;;;;;;0.50;0.50;;;;;;;10.65;94.85;97070.53;29395;213;63005;-56
2022/10/25 01:03:51;;;;;;;0.43;0.43;;;;;;;10.66;94.29;97074.84;29395;264;63016;-56
2022/10/25 01:04:27;;;;;;;0.50;0.50;;;;;;;10.65;94.27;97061.56;29395;334;63005;-57
2022/10/25 01:05:00;;;;;;;0.50;0.50;;;;;;;10.64;94.60;97068.91;29395;206;63009;-56
2022/10/25 01:05:33;;;;;;;0.50;0.50;;;;;;;10.63;94.71;97064.56;29395;245;63005;-57
2022/10/25 01:06:10;;;;;;;0.50;0.50;;;;;;;10.62;95.26;97068.38;29395;427;63027;-56
2022/10/25 01:06:46;;;;;;;0.50;0.50;;;;;;;10.68;94.94;97067.22;29395;202;63004;-56
2022/10/25 01:07:18;;;;;;;0.50;0.50;;;;;;;10.69;95.03;97068.03;29394;293;64013;-56
2022/10/25 01:07:50;;;;;;;0.50;0.50;;;;;;;10.65;95.02;97056.94;29395;231;63004;-57
2022/10/25 01:08:23;;;;;;;0.50;0.50;;;;;;;10.67;95.04;97070.22;29395;281;63008;-56
2022/10/25 01:08:56;;;;;;;0.50;0.50;;;;;;;10.63;94.67;97064.56;29395;299;63005;-56
2022/10/25 01:09:33;;;;;;;0.50;0.50;;;;;;;10.64;94.73;97060.75;29395;231;63009;-57
2022/10/25 01:10:05;;;;;;;0.50;0.50;;;;;;;10.66;94.73;97063.19;29395;197;63005;-56
2022/10/25 01:10:38;;;;;;;0.40;0.40;;;;;;;10.65;94.50;97062.38;29395;231;63018;-57
2022/10/25 01:11:10;;;;;;;0.47;0.47;;;;;;;10.66;94.44;97063.19;29395;253;63005;-57
2022/10/25 01:11:42;;;;;;;0.50;0.50;;;;;;;10.67;94.86;97071.03;29394;229;64013;-56
2022/10/25 01:12:13;;;;;;;0.50;0.50;;;;;;;10.68;95.00;97069.13;29395;269;63005;-56
2022/10/25 01:12:46;;;;;;;0.50;0.50;;;;;;;10.67;94.63;97065.63;29395;371;63019;-56
2022/10/25 01:13:18;;;;;;;0.50;0.50;;;;;;;10.68;94.76;97075.38;29395;240;63004;-57
2022/10/25 01:13:51;;;;;;;0.50;0.50;;;;;;;10.69;94.72;97077.00;29395;346;63009;-57
2022/10/25 01:14:23;;;;;;;0.50;0.50;;;;;;;10.71;94.52;97076.69;29395;411;63004;-57
2022/10/25 01:14:55;;;;;;;0.50;0.50;;;;;;;10.70;94.18;97070.47;29395;208;63008;-57
2022/10/25 01:15:50;;;;;;;0.50;0.50;;;;;;;10.71;94.07;97072.09;29395;236;63014;-58
2022/10/25 01:17:03;;;;;;;0.50;0.50;;;;;;;10.71;94.09;97071.28;29394;322;64013;-57
2022/10/25 01:18:01;;;;;;;0.50;0.50;;;;;;;10.70;94.21;97073.19;29417;224;63005;-58
2022/10/25 01:18:53;;;;;;;0.50;0.50;;;;;;;10.66;94.41;97058.56;29395;216;63009;-57
2022/10/25 01:20:16;;;;;;;0.47;0.47;;;;;;;10.70;93.98;97065.03;29417;214;63005;-57
2022/10/25 01:21:18;;;;;;;0.50;0.50;;;;;;;10.71;93.86;97066.66;29416;203;64013;-62
2022/10/25 01:22:00;;;;;;;0.50;0.50;;;;;;;10.70;95.00;97059.59;29395;251;63004;-56
2022/10/25 01:22:49;;;;;;;0.50;0.50;;;;;;;10.68;95.32;97067.22;29395;263;63008;-57
2022/10/25 01:24:01;;;;;;;0.50;0.50;;;;;;;10.68;95.35;97066.41;29395;198;63005;-56
2022/10/25 01:25:20;;;;;;;0.50;0.50;;;;;;;10.64;94.66;97057.22;29416;222;64014;-56
2022/10/25 01:26:36;;;;;;;0.50;0.50;;;;;;;10.61;95.55;97055.91;29395;313;63009;-56
2022/10/25 01:27:42;;;;;;;0.50;0.50;;;;;;;10.60;95.44;97054.28;29395;236;63005;-57
2022/10/25 01:28:42;;;;;;;0.50;0.50;;;;;;;10.62;95.50;97052.09;29395;210;63009;-57
2022/10/25 01:29:50;;;;;;;0.50;0.50;;;;;;;10.64;94.85;97059.94;29394;340;64009;-64
2022/10/25 01:30:52;;;;;;;0.50;0.50;;;;;;;10.66;94.45;97053.13;29395;287;63004;-56
2022/10/25 01:32:11;;;;;;;0.40;0.40;;;;;;;10.72;94.02;97059.31;29417;258;63009;-56
2022/10/25 01:33:15;;;;;;;0.50;0.50;;;;;;;10.72;94.27;97051.97;29394;233;64009;-59
2022/10/25 01:34:08;;;;;;;0.50;0.50;;;;;;;10.73;93.90;97059.03;29395;286;63009;-57
2022/10/25 01:34:51;;;;;;;0.50;0.50;;;;;;;10.73;93.87;97050.09;29395;322;63005;-55
2022/10/25 01:35:30;;;;;;;0.50;0.50;;;;;;;10.70;94.02;97051.47;29395;210;63009;-57
2022/10/25 01:36:41;;;;;;;0.50;0.50;;;;;;;10.72;93.92;97051.97;29395;221;63004;-57
2022/10/25 01:37:41;;;;;;;0.50;0.50;;;;;;;10.69;93.78;97052.56;29394;244;64013;-56
2022/10/25 01:38:57;;;;;;;0.50;0.50;;;;;;;10.70;93.24;97051.47;29395;259;63004;-61
2022/10/25 01:39:34;;;;;;;0.50;0.50;;;;;;;10.69;93.11;97051.75;29395;239;63009;-56
2022/10/25 01:40:21;;;;;;;0.50;0.50;;;;;;;10.67;93.42;97053.94;29395;226;63005;-56
2022/10/25 01:41:06;;;;;;;0.50;0.50;;;;;;;10.67;93.28;97053.94;29395;198;63009;-57
2022/10/25 01:42:06;;;;;;;0.50;0.50;;;;;;;10.64;93.40;97059.94;29395;199;63005;-57
2022/10/25 01:42:53;;;;;;;0.50;0.50;;;;;;;10.59;93.83;97052.66;29394;254;64013;-56
2022/10/25 01:44:07;;;;;;;0.50;0.50;;;;;;;10.55;94.30;97051.63;29395;260;63004;-56
2022/10/25 01:45:14;;;;;;;0.50;0.50;;;;;;;10.51;94.65;97058.72;29395;225;63009;-56
2022/10/25 01:46:16;;;;;;;0.50;0.50;;;;;;;10.53;94.90;97063.88;29395;196;63004;-56
2022/10/25 01:47:00;;;;;;;0.50;0.50;;;;;;;10.54;94.84;97060.06;29395;273;63009;-56
2022/10/25 01:47:49;;;;;;;0.50;0.50;;;;;;;10.54;94.55;97060.88;29395;224;63005;-56
2022/10/25 01:48:25;;;;;;;0.50;0.50;;;;;;;10.53;94.43;97053.81;29394;225;64013;-56
2022/10/25 01:49:07;;;;;;;0.50;0.50;;;;;;;10.54;94.12;97060.06;29394;345;64009;-57
2022/10/25 01:50:03;;;;;;;0.50;0.50;;;;;;;10.52;94.41;97059.53;29395;238;63009;-56
2022/10/25 01:50:38;;;;;;;0.50;0.50;;;;;;;10.50;94.73;97057.09;29395;248;63004;-57
2022/10/25 01:51:13;;;;;;;0.50;0.50;;;;;;;10.50;94.62;97059.81;29395;363;63009;-56
2022/10/25 01:51:45;;;;;;;0.50;0.50;;;;;;;10.49;94.50;97055.50;29394;288;64001;-58
2022/10/25 01:52:23;;;;;;;0.43;0.43;;;;;;;10.49;94.58;97055.50;29395;411;63009;-56
2022/10/25 01:52:54;;;;;;;0.50;0.50;;;;;;;10.48;94.58;97062.00;29395;241;63004;-57
2022/10/25 01:53:25;;;;;;;0.50;0.50;;;;;;;10.52;94.63;97063.06;29395;401;63005;-57
2022/10/25 01:53:57;;;;;;;0.50;0.50;;;;;;;10.52;93.94;97056.81;29395;418;63005;-56
2022/10/25 01:54:28;;;;;;;0.50;0.50;;;;;;;10.50;93.90;97065.25;29395;260;63009;-58
2022/10/25 01:54:59;;;;;;;0.50;0.50;;;;;;;10.50;94.20;97059.81;29394;512;64005;-57
2022/10/25 01:55:36;;;;;;;0.50;0.50;;;;;;;10.55;93.56;97057.06;29395;252;63009;-56
2022/10/25 01:56:07;;;;;;;0.50;0.50;;;;;;;10.54;93.91;97058.16;29395;300;63005;-56
2022/10/25 01:56:50;;;;;;;0.50;0.50;;;;;;;10.50;94.26;97059.81;29395;480;63009;-57
2022/10/25 01:58:04;;;;;;;0.50;0.50;;;;;;;10.48;94.23;97061.19;29394;250;64009;-56
2022/10/25 01:59:04;;;;;;;0.50;0.50;;;;;;;10.44;94.83;97058.25;29395;248;63009;-57
2022/10/25 02:00:08;;;;;;;0.50;0.50;;;;;;;10.46;94.36;97058.78;29395;285;63009;-57
2022/10/25 02:01:14;;;;;;;0.50;0.50;;;;;;;10.47;93.95;97065.00;29395;261;63004;-57
2022/10/25 02:02:16;;;;;;;0.50;0.50;;;;;;;10.45;94.18;97067.19;29395;237;63009;-56
2022/10/25 02:03:35;;;;;;;0.50;0.50;;;;;;;10.45;94.03;97068.00;29416;269;64009;-56
2022/10/25 02:04:35;;;;;;;0.50;0.50;;;;;;;10.44;94.42;97069.09;29395;203;63021;-56
2022/10/25 02:05:26;;;;;;;0.50;0.50;;;;;;;10.39;94.75;97066.47;29395;242;63004;-57
2022/10/25 02:06:42;;;;;;;0.50;0.50;;;;;;;10.38;94.92;97068.38;29417;268;63009;-56
2022/10/25 02:07:32;;;;;;;0.50;0.50;;;;;;;10.38;94.89;97064.84;29395;204;63004;-56
2022/10/25 02:08:27;;;;;;;0.50;0.50;;;;;;;10.38;95.11;97064.84;29394;259;64013;-64
2022/10/25 02:09:12;;;;;;;0.50;0.50;;;;;;;10.35;95.81;97063.53;29395;290;63005;-57
2022/10/25 02:10:13;;;;;;;0.50;0.50;;;;;;;10.36;95.87;97064.31;29395;219;63009;-57
2022/10/25 02:11:09;;;;;;;0.50;0.50;;;;;;;10.38;95.88;97064.84;29395;256;63005;-57
2022/10/25 02:11:42;;;;;;;0.50;0.50;;;;;;;10.41;95.25;97061.53;29395;283;63009;-56
2022/10/25 02:12:23;;;;;;;0.50;0.50;;;;;;;10.41;95.27;97061.53;29394;217;64005;-57
2022/10/25 02:13:28;;;;;;;0.50;0.50;;;;;;;10.40;95.46;97059.91;29395;213;63009;-57
2022/10/25 02:14:21;;;;;;;0.50;0.50;;;;;;;10.38;95.71;97062.94;29394;244;64009;-56
2022/10/25 02:15:09;;;;;;;0.50;0.50;;;;;;;10.40;95.79;97066.16;29395;195;63024;-56
2022/10/25 02:15:59;;;;;;;0.50;0.50;;;;;;;10.40;95.50;97059.91;29395;201;63014;-57
2022/10/25 02:16:48;;;;;;;0.50;0.50;;;;;;;10.39;95.91;97063.75;29395;263;63009;-57
2022/10/25 02:17:25;;;;;;;0.50;0.50;;;;;;;10.38;96.05;97062.94;29395;240;63010;-56
2022/10/25 02:18:04;;;;;;;0.50;0.50;;;;;;;10.38;96.30;97067.56;29394;197;64013;-55
2022/10/25 02:18:39;;;;;;;0.50;0.50;;;;;;;10.39;96.50;97069.19;29395;257;63005;-56
2022/10/25 02:19:16;;;;;;;0.50;0.50;;;;;;;10.39;97.06;97070.00;29395;302;63013;-56
2022/10/25 02:19:54;;;;;;;0.40;0.40;;;;;;;10.39;96.95;97063.75;29394;251;64009;-67
2022/10/25 02:20:29;;;;;;;0.50;0.50;;;;;;;10.38;96.81;97068.38;29395;287;63009;-56
2022/10/25 02:21:04;;;;;;;0.50;0.50;;;;;;;10.38;96.65;97062.12;29395;409;63004;-57
2022/10/25 02:21:36;;;;;;;0.47;0.47;;;;;;;10.37;96.61;97071.38;29395;368;63009;-58
2022/10/25 02:22:10;;;;;;;0.50;0.50;;;;;;;10.36;96.52;97061.63;29395;217;63004;-56
2022/10/25 02:22:42;;;;;;;0.50;0.50;;;;;;;10.36;96.82;97065.13;29395;530;63008;-56
2022/10/25 02:23:17;;;;;;;0.50;0.50;;;;;;;10.37;96.62;97065.94;29395;402;63004;-56
2022/10/25 02:23:52;;;;;;;0.50;0.50;;;;;;;10.40;96.10;97066.16;29394;197;64014;-56
2022/10/25 02:24:27;;;;;;;0.50;0.50;;;;;;;10.40;95.93;97065.34;29395;246;63005;-57
2022/10/25 02:25:00;;;;;;;0.50;0.50;;;;;;;10.39;95.96;97067.28;29394;359;64013;-57
2022/10/25 02:25:36;;;;;;;0.50;0.50;;;;;;;10.39;95.95;97064.56;29395;232;63005;-57
2022/10/25 02:26:09;;;;;;;0.50;0.50;;;;;;;10.41;96.24;97062.34;29395;249;63009;-57
2022/10/25 02:26:43;;;;;;;0.50;0.50;;;;;;;10.47;95.30;97063.09;29395;280;63005;-57
2022/10/25 02:27:17;;;;;;;0.50;0.50;;;;;;;10.51;95.23;97061.44;29395;270;63009;-56
2022/10/25 02:27:52;;;;;;;0.50;0.50;;;;;;;10.51;94.77;97060.63;29395;355;63010;-56
2022/10/25 02:28:29;;;;;;;0.50;0.50;;;;;;;10.50;95.07;97069.84;29395;239;63009;-56
2022/10/25 02:29:03;;;;;;;0.50;0.50;;;;;;;10.49;94.89;97060.09;29395;406;63004;-56
2022/10/25 02:29:36;;;;;;;0.50;0.50;;;;;;;10.47;96.13;97060.38;29395;240;63008;-58
2022/10/25 02:30:09;;;;;;;0.50;0.50;;;;;;;10.46;96.14;97063.38;29394;308;64008;-62
2022/10/25 02:30:43;;;;;;;0.50;0.50;;;;;;;10.46;96.17;97068.81;29395;205;63009;-56
2022/10/25 02:31:18;;;;;;;0.50;0.50;;;;;;;10.45;96.14;97068.00;29394;359;64009;-56
2022/10/25 02:31:50;;;;;;;0.50;0.50;;;;;;;10.45;96.17;97061.78;29395;258;63009;-56
2022/10/25 02:32:22;;;;;;;0.50;0.50;;;;;;;10.43;95.87;97069.38;29395;202;63005;-57
2022/10/25 02:32:53;;;;;;;0.50;0.50;;;;;;;10.42;95.87;97068.56;29395;246;63009;-56
2022/10/25 02:33:25;;;;;;;0.50;0.50;;;;;;;10.43;95.63;97069.38;29395;245;63005;-56
2022/10/25 02:33:56;;;;;;;0.50;0.50;;;;;;;10.44;95.76;97060.97;29395;207;63009;-56
2022/10/25 02:34:28;;;;;;;0.50;0.50;;;;;;;10.47;95.39;97065.81;29395;291;63004;-65
2022/10/25 02:34:59;;;;;;;0.50;0.50;;;;;;;10.47;95.23;97062.28;29395;256;63009;-57
2022/10/25 02:35:31;;;;;;;0.50;0.50;;;;;;;10.47;95.05;97062.28;29395;275;63004;-57
2022/10/25 02:36:19;;;;;;;0.50;0.50;;;;;;;10.46;95.36;97057.97;29395;197;63009;-57
2022/10/25 02:36:53;;;;;;;0.50;0.50;;;;;;;10.46;95.29;97058.78;29394;202;64009;-56
2022/10/25 02:37:24;;;;;;;0.50;0.50;;;;;;;10.48;95.43;97056.59;29395;199;63008;-58
2022/10/25 02:37:55;;;;;;;0.50;0.50;;;;;;;10.48;95.02;97062.00;29395;332;63011;-57
2022/10/25 02:38:27;;;;;;;0.50;0.50;;;;;;;10.50;94.88;97061.72;29395;208;63009;-56
2022/10/25 02:38:59;;;;;;;0.50;0.50;;;;;;;10.49;94.99;97060.91;29395;236;63005;-58
2022/10/25 02:39:32;;;;;;;0.50;0.50;;;;;;;10.48;95.17;97056.59;29395;223;63009;-57
2022/10/25 02:40:04;;;;;;;0.50;0.50;;;;;;;10.48;94.96;97058.50;29395;441;63005;-56
2022/10/25 02:40:36;;;;;;;0.50;0.50;;;;;;;10.47;95.28;97059.59;29395;413;63009;-57
2022/10/25 02:41:11;;;;;;;0.50;0.50;;;;;;;10.47;95.14;97060.38;29395;199;63005;-56
2022/10/25 02:41:42;;;;;;;0.50;0.50;;;;;;;10.47;95.23;97065.00;29394;229;64031;-57
2022/10/25 02:42:13;;;;;;;0.50;0.50;;;;;;;10.49;95.26;97057.38;29395;218;63004;-56
2022/10/25 02:42:45;;;;;;;0.50;0.50;;;;;;;10.50;95.24;97061.72;29395;218;63011;-57
2022/10/25 02:43:16;;;;;;;0.50;0.50;;;;;;;10.51;95.11;97061.44;29395;402;63004;-57
2022/10/25 02:43:48;;;;;;;0.50;0.50;;;;;;;10.54;94.63;97063.56;29395;196;63009;-58
2022/10/25 02:44:19;;;;;;;0.50;0.50;;;;;;;10.54;94.46;97060.88;29395;243;63004;-57
2022/10/25 02:44:50;;;;;;;0.50;0.50;;;;;;;10.59;93.68;97063.53;29394;208;64023;-58
2022/10/25 02:45:22;;;;;;;0.50;0.50;;;;;;;10.64;93.40;97060.75;29395;202;63004;-57
2022/10/25 02:45:53;;;;;;;0.50;0.50;;;;;;;10.67;93.35;97054.75;29395;266;63009;-58
2022/10/25 02:46:25;;;;;;;0.50;0.50;;;;;;;10.67;92.92;97054.75;29395;239;63005;-56
2022/10/25 02:46:57;;;;;;;0.50;0.50;;;;;;;10.64;92.96;97049.91;29395;245;63009;-57
2022/10/25 02:47:28;;;;;;;0.50;0.50;;;;;;;10.69;92.64;97052.56;29395;300;63015;-70
2022/10/25 02:47:59;;;;;;;0.50;0.50;;;;;;;10.69;92.72;97052.56;29395;219;63009;-57
2022/10/25 02:48:30;;;;;;;0.50;0.50;;;;;;;10.72;92.32;97056.59;29395;216;63010;-57
2022/10/25 02:49:02;;;;;;;0.50;0.50;;;;;;;10.74;92.31;97055.19;29395;260;63009;-57
2022/10/25 02:49:33;;;;;;;0.50;0.50;;;;;;;10.72;92.64;97046.56;29395;224;63004;-58
2022/10/25 02:50:06;;;;;;;0.50;0.50;;;;;;;10.71;92.53;97050.38;29394;242;64013;-57
2022/10/25 02:50:37;;;;;;;0.50;0.50;;;;;;;10.69;92.56;97052.56;29395;238;63004;-57
2022/10/25 02:51:10;;;;;;;0.50;0.50;;;;;;;10.65;92.62;97048.81;29395;224;63009;-59
2022/10/25 02:51:41;;;;;;;0.50;0.50;;;;;;;10.71;92.72;97055.00;29395;235;63009;-57
2022/10/25 02:52:13;;;;;;;1.08;1.08;;;;;;;10.68;92.47;97056.38;29395;206;63008;-58
2022/10/25 02:52:44;;;;;;;0.50;0.50;;;;;;;10.63;92.57;97051.00;29395;243;63004;-58
2022/10/25 02:53:16;;;;;;;0.50;0.50;;;;;;;10.61;92.65;97053.19;29395;206;63009;-57
2022/10/25 02:53:48;;;;;;;0.50;0.50;;;;;;;10.59;92.95;97052.66;29395;250;63017;-57
2022/10/25 02:54:19;;;;;;;0.50;0.50;;;;;;;10.67;92.80;97043.91;29395;212;63009;-60
2022/10/25 02:54:50;;;;;;;0.50;0.50;;;;;;;10.72;91.89;97051.97;29395;199;63005;-58
2022/10/25 02:55:25;;;;;;;0.50;0.50;;;;;;;10.71;91.70;97050.38;29394;197;64013;-58
2022/10/25 02:56:09;;;;;;;0.50;0.50;;;;;;;10.73;91.65;97047.38;29395;221;63011;-57
2022/10/25 02:56:40;;;;;;;0.50;0.50;;;;;;;10.69;91.84;97052.56;29395;208;63009;-59
2022/10/25 02:57:11;;;;;;;0.50;0.50;;;;;;;10.72;91.73;97046.56;29395;226;63004;-57
2022/10/25 02:57:44;;;;;;;0.50;0.50;;;;;;;10.69;92.09;97047.12;29395;214;63016;-57
2022/10/25 02:58:16;;;;;;;0.50;0.50;;;;;;;10.72;91.67;97046.56;29395;224;63004;-58
2022/10/25 02:58:49;;;;;;;0.50;0.50;;;;;;;10.73;91.87;97052.78;29395;203;63013;-57
2022/10/25 02:59:20;;;;;;;0.50;0.50;;;;;;;10.71;91.69;97049.56;29395;243;63004;-58
2022/10/25 02:59:51;;;;;;;0.50;0.50;;;;;;;10.74;91.51;97041.63;29395;202;63016;-58
2022/10/25 03:00:23;;;;;;;0.50;0.50;;;;;;;10.74;91.72;97048.97;29394;230;64008;-56
2022/10/25 03:00:54;;;;;;;0.50;0.50;;;;;;;10.69;91.68;97047.12;29395;222;63009;-57
2022/10/25 03:01:25;;;;;;;0.50;0.50;;;;;;;10.62;92.14;97049.38;29395;247;63005;-55
2022/10/25 03:01:56;;;;;;;0.50;0.50;;;;;;;10.60;92.59;97046.16;29395;226;63009;-57
2022/10/25 03:02:28;;;;;;;0.50;0.50;;;;;;;10.57;92.40;97045.91;29395;209;63011;-58
2022/10/25 03:02:59;;;;;;;0.50;0.50;;;;;;;10.56;92.96;97047.81;29395;197;63015;-57
2022/10/25 03:03:32;;;;;;;0.50;0.50;;;;;;;10.53;93.05;97048.38;29395;224;63005;-56